createdAt,value
2022-10-27T00:00:34.092Z,14.20
2022-10-27T00:03:01.812Z,14.20
2022-10-27T00:05:29.238Z,14.20
2022-10-27T00:07:56.726Z,14.30
2022-10-27T00:10:23.947Z,14.20
2022-10-27T00:12:51.292Z,14.20
2022-10-27T00:15:18.802Z,14.20
2022-10-27T00:17:45.788Z,14.30
2022-10-27T00:20:13.159Z,14.30
2022-10-27T00:22:40.284Z,14.30
2022-10-27T00:25:07.820Z,14.40
2022-10-27T00:27:35.152Z,14.40
2022-10-27T00:30:02.762Z,14.40
2022-10-27T00:32:29.794Z,14.30
2022-10-27T00:34:56.957Z,14.30
2022-10-27T00:37:24.217Z,14.20
2022-10-27T00:39:51.442Z,14.20
2022-10-27T00:42:18.660Z,14.20
2022-10-27T00:44:46.774Z,14.20
2022-10-27T00:47:23.993Z,14.20
2022-10-27T00:50:08.278Z,14.10
2022-10-27T00:52:45.666Z,14.10
2022-10-27T00:55:39.540Z,14.10
2022-10-27T00:58:12.522Z,14.20
2022-10-27T01:00:40.583Z,14.10
2022-10-27T01:03:07.891Z,14.10
2022-10-27T01:05:34.930Z,14.10
2022-10-27T01:08:05.948Z,14.10
2022-10-27T01:10:33.247Z,14.10
2022-10-27T01:13:03.245Z,14.10
2022-10-27T01:15:56.096Z,14.10
2022-10-27T01:18:57.714Z,14.10
2022-10-27T01:21:40.111Z,14.10
2022-10-27T01:24:41.319Z,14.10
2022-10-27T01:27:17.773Z,14.10
2022-10-27T01:30:06.270Z,14.20
2022-10-27T01:33:13.065Z,14.20
2022-10-27T01:36:03.147Z,14.20
2022-10-27T01:38:32.661Z,14.20
2022-10-27T01:41:19.955Z,14.30
2022-10-27T01:43:47.702Z,14.30
2022-10-27T01:46:14.842Z,14.20
2022-10-27T01:48:42.410Z,14.20
2022-10-27T01:51:10.188Z,14.20
2022-10-27T01:53:41.616Z,14.10
2022-10-27T01:56:32.624Z,14.10
2022-10-27T01:59:05.867Z,14.10
2022-10-27T02:02:11.870Z,14.00
2022-10-27T02:05:13.380Z,14.00
2022-10-27T02:07:59.171Z,13.90
2022-10-27T02:10:28.935Z,13.90
2022-10-27T02:12:56.042Z,13.90
2022-10-27T02:15:25.942Z,13.90
2022-10-27T02:17:53.255Z,14.00
2022-10-27T02:20:22.895Z,14.00
2022-10-27T02:22:51.616Z,14.00
2022-10-27T02:25:23.878Z,14.00
2022-10-27T02:27:56.064Z,14.00
2022-10-27T02:30:23.176Z,14.10
2022-10-27T02:32:50.512Z,14.10
2022-10-27T02:35:18.172Z,14.10
2022-10-27T02:37:46.627Z,14.10
2022-10-27T02:40:13.632Z,14.10
2022-10-27T02:42:40.968Z,14.10
2022-10-27T02:45:08.530Z,14.10
2022-10-27T02:47:35.589Z,14.10
2022-10-27T02:50:03.088Z,14.10
2022-10-27T02:52:30.473Z,14.10
2022-10-27T02:54:57.750Z,14.10
2022-10-27T02:57:25.269Z,14.10
2022-10-27T02:59:53.763Z,14.00
2022-10-27T03:02:23.536Z,14.00
2022-10-27T03:04:51.670Z,14.00
2022-10-27T03:07:19.057Z,14.00
2022-10-27T03:09:46.168Z,13.90
2022-10-27T03:12:14.368Z,13.90
2022-10-27T03:14:41.493Z,13.90
2022-10-27T03:17:08.649Z,13.90
2022-10-27T03:19:35.917Z,13.90
2022-10-27T03:22:03.101Z,13.90
2022-10-27T03:24:32.965Z,13.90
2022-10-27T03:27:00.789Z,13.80
2022-10-27T03:29:28.030Z,13.80
2022-10-27T03:31:55.134Z,13.80
2022-10-27T03:34:22.484Z,13.80
2022-10-27T03:36:49.744Z,13.80
2022-10-27T03:39:16.797Z,13.80
2022-10-27T03:41:44.257Z,13.80
2022-10-27T03:44:11.487Z,13.80
2022-10-27T03:46:38.634Z,13.80
2022-10-27T03:49:05.850Z,13.80
2022-10-27T03:51:32.897Z,13.80
2022-10-27T03:54:01.982Z,13.80
2022-10-27T03:56:29.853Z,13.80
2022-10-27T03:58:56.896Z,13.70
2022-10-27T04:01:24.099Z,13.80
2022-10-27T04:03:51.822Z,13.80
2022-10-27T04:06:18.810Z,13.80
2022-10-27T04:08:46.062Z,13.80
2022-10-27T04:11:13.372Z,13.80
2022-10-27T04:13:41.188Z,13.80
2022-10-27T04:16:08.644Z,13.90
2022-10-27T04:18:36.149Z,13.90
2022-10-27T04:21:04.241Z,14.00
2022-10-27T04:23:31.976Z,14.00
2022-10-27T04:25:59.669Z,14.00
2022-10-27T04:28:26.689Z,14.10
2022-10-27T04:30:54.009Z,14.10
2022-10-27T04:33:25.003Z,14.10
2022-10-27T04:35:55.170Z,14.00
2022-10-27T04:38:22.452Z,14.00
2022-10-27T04:40:49.610Z,14.10
2022-10-27T04:43:16.804Z,14.10
2022-10-27T04:45:44.324Z,14.00
2022-10-27T04:48:11.516Z,14.10
2022-10-27T04:50:38.577Z,14.00
2022-10-27T04:53:06.222Z,14.00
2022-10-27T04:55:33.640Z,14.00
2022-10-27T04:58:04.255Z,14.00
2022-10-27T05:00:35.778Z,14.00
2022-10-27T05:03:03.044Z,14.00
2022-10-27T05:05:30.788Z,14.00
2022-10-27T05:08:01.951Z,14.00
2022-10-27T05:10:32.710Z,13.90
2022-10-27T05:12:59.972Z,13.90
2022-10-27T05:15:27.836Z,13.90
2022-10-27T05:17:55.168Z,13.90
2022-10-27T05:20:22.888Z,13.90
2022-10-27T05:22:50.144Z,13.90
2022-10-27T05:25:17.408Z,13.90
2022-10-27T05:27:44.719Z,13.80
2022-10-27T05:30:13.293Z,13.80
2022-10-27T05:32:43.404Z,13.80
2022-10-27T05:35:13.754Z,13.80
2022-10-27T05:37:45.344Z,13.90
2022-10-27T05:40:12.658Z,13.90
2022-10-27T05:42:41.336Z,14.00
2022-10-27T05:45:09.116Z,14.00
2022-10-27T05:47:36.331Z,14.00
2022-10-27T05:50:03.491Z,14.00
2022-10-27T05:52:30.784Z,14.00
2022-10-27T05:54:57.988Z,14.10
2022-10-27T05:57:25.202Z,14.10
2022-10-27T05:59:52.342Z,14.10
2022-10-27T06:02:19.621Z,14.10
2022-10-27T06:04:46.901Z,14.10
2022-10-27T06:07:14.597Z,14.20
2022-10-27T06:09:42.120Z,14.20
2022-10-27T06:12:09.575Z,14.30
2022-10-27T06:14:36.657Z,14.30
2022-10-27T06:17:03.827Z,14.30
2022-10-27T06:19:31.042Z,14.40
2022-10-27T06:21:58.741Z,14.60
2022-10-27T06:24:26.247Z,14.70
2022-10-27T06:26:56.169Z,14.80
2022-10-27T06:29:24.389Z,14.90
2022-10-27T06:31:51.572Z,15.00
2022-10-27T06:34:22.271Z,15.10
2022-10-27T06:36:49.483Z,15.20
2022-10-27T06:39:16.624Z,15.20
2022-10-27T06:41:43.833Z,15.20
2022-10-27T06:44:18.947Z,15.30
2022-10-27T06:46:46.265Z,15.30
2022-10-27T06:49:15.484Z,15.40
2022-10-27T06:51:45.460Z,15.40
2022-10-27T06:54:13.112Z,15.40
2022-10-27T06:56:40.475Z,15.40
2022-10-27T06:59:07.614Z,15.40
2022-10-27T07:01:34.998Z,15.40
2022-10-27T07:04:02.540Z,15.50
2022-10-27T07:06:30.262Z,15.50
2022-10-27T07:08:58.125Z,15.50
2022-10-27T07:11:28.802Z,15.60
2022-10-27T07:13:56.555Z,15.60
2022-10-27T07:16:23.830Z,15.60
2022-10-27T07:18:51.084Z,15.50
2022-10-27T07:21:18.482Z,15.40
2022-10-27T07:23:45.570Z,15.50
2022-10-27T07:26:12.765Z,15.50
2022-10-27T07:28:39.919Z,15.50
2022-10-27T07:31:07.111Z,15.50
2022-10-27T07:33:34.269Z,15.50
2022-10-27T07:36:01.909Z,15.50
2022-10-27T07:38:29.097Z,15.50
2022-10-27T07:40:59.313Z,15.50
2022-10-27T07:43:26.834Z,15.50
2022-10-27T07:45:55.413Z,15.50
2022-10-27T07:48:22.521Z,15.60
2022-10-27T07:53:18.694Z,15.60
2022-10-27T07:55:45.737Z,15.70
2022-10-27T07:58:14.658Z,15.70
2022-10-27T08:00:43.331Z,15.70
2022-10-27T08:03:20.936Z,15.70
2022-10-27T08:05:48.676Z,15.70
2022-10-27T08:08:16.301Z,15.70
2022-10-27T08:10:46.184Z,15.80
2022-10-27T08:13:13.749Z,15.80
2022-10-27T08:15:41.592Z,15.90
2022-10-27T08:18:09.608Z,16.00
2022-10-27T08:20:46.978Z,16.00
2022-10-27T08:23:18.394Z,16.00
2022-10-27T08:25:45.607Z,16.10
2022-10-27T08:28:15.998Z,16.10
2022-10-27T08:30:50.705Z,16.30
2022-10-27T08:33:20.530Z,16.30
2022-10-27T08:35:47.845Z,16.50
2022-10-27T08:38:16.471Z,16.50
2022-10-27T08:41:02.648Z,16.60
2022-10-27T08:43:49.066Z,16.70
2022-10-27T08:46:22.400Z,16.80
2022-10-27T08:48:50.118Z,16.80
2022-10-27T08:51:20.099Z,16.90
2022-10-27T08:53:48.822Z,16.90
2022-10-27T08:56:16.267Z,17.00
2022-10-27T08:58:47.282Z,17.00
2022-10-27T09:01:32.807Z,17.10
2022-10-27T09:04:27.120Z,17.20
2022-10-27T09:07:11.148Z,17.30
2022-10-27T09:09:45.343Z,17.30
2022-10-27T09:12:44.109Z,17.40
2022-10-27T09:15:17.053Z,17.40
2022-10-27T09:17:55.740Z,17.30
2022-10-27T09:20:59.442Z,17.40
2022-10-27T09:23:33.665Z,17.30
2022-10-27T09:26:00.885Z,17.30
2022-10-27T09:28:41.057Z,17.40
2022-10-27T09:31:12.274Z,17.50
2022-10-27T09:33:39.430Z,17.60
2022-10-27T09:36:14.156Z,17.70
2022-10-27T09:38:41.557Z,17.80
2022-10-27T09:41:08.766Z,17.70
2022-10-27T09:43:37.522Z,17.70
2022-10-27T09:46:07.287Z,17.80
2022-10-27T09:48:34.650Z,17.80
2022-10-27T09:51:08.046Z,17.80
2022-10-27T09:53:49.272Z,17.90
2022-10-27T09:56:37.612Z,17.90
2022-10-27T09:59:05.534Z,18.00
2022-10-27T10:01:43.245Z,18.10
2022-10-27T10:04:35.201Z,18.20
2022-10-27T10:07:16.735Z,18.30
2022-10-27T10:09:44.433Z,18.30
2022-10-27T10:12:26.125Z,18.30
2022-10-27T10:15:11.764Z,18.40
2022-10-27T10:17:40.794Z,18.40
2022-10-27T10:20:09.487Z,18.40
2022-10-27T10:22:40.247Z,18.50
2022-10-27T10:25:21.451Z,18.60
2022-10-27T10:27:55.651Z,18.70
2022-10-27T10:30:23.326Z,18.80
2022-10-27T10:32:52.669Z,18.90
2022-10-27T10:35:58.798Z,19.00
2022-10-27T10:38:38.214Z,19.10
2022-10-27T10:41:13.118Z,19.30
2022-10-27T10:43:45.887Z,19.20
2022-10-27T10:46:32.977Z,19.20
2022-10-27T10:49:01.553Z,19.30
2022-10-27T10:51:36.645Z,19.30
2022-10-27T10:54:23.699Z,19.50
2022-10-27T10:57:05.427Z,19.40
2022-10-27T10:59:39.409Z,19.50
2022-10-27T11:02:31.084Z,19.70
2022-10-27T11:05:12.838Z,19.80
2022-10-27T11:07:41.020Z,19.70
2022-10-27T11:10:40.034Z,19.70
2022-10-27T11:13:41.967Z,19.70
2022-10-27T11:16:32.858Z,19.60
2022-10-27T11:19:16.507Z,19.50
2022-10-27T11:21:53.167Z,19.50
2022-10-27T11:24:37.122Z,19.50
2022-10-27T11:27:11.390Z,19.50
2022-10-27T11:32:45.176Z,19.50
2022-10-27T11:35:52.380Z,19.50
2022-10-27T11:41:32.212Z,19.60
2022-10-27T11:44:26.604Z,19.60
2022-10-27T11:47:00.052Z,19.60
2022-10-27T11:49:49.302Z,19.60
2022-10-27T11:52:44.360Z,19.60
2022-10-27T11:58:18.027Z,19.60
2022-10-27T12:01:07.080Z,19.50
2022-10-27T12:03:57.295Z,19.40
2022-10-27T12:06:34.534Z,19.50
2022-10-27T12:09:05.081Z,19.60
2022-10-27T12:12:11.746Z,19.70
2022-10-27T12:14:52.625Z,19.70
2022-10-27T12:17:56.310Z,19.80
2022-10-27T12:20:48.236Z,19.80
2022-10-27T12:23:22.954Z,19.90
2022-10-27T12:25:55.921Z,19.80
2022-10-27T12:28:23.724Z,19.90
2022-10-27T12:30:52.720Z,20.10
2022-10-27T12:33:35.865Z,20.10
2022-10-27T12:36:05.982Z,20.10
2022-10-27T12:38:37.440Z,20.10
2022-10-27T12:41:15.673Z,20.20
2022-10-27T12:44:08.184Z,20.20
2022-10-27T12:46:48.693Z,20.30
2022-10-27T12:49:49.981Z,20.20
2022-10-27T12:52:25.280Z,20.20
2022-10-27T12:55:20.111Z,20.30
2022-10-27T12:57:52.548Z,20.40
2022-10-27T13:00:21.711Z,20.40
2022-10-27T13:02:52.062Z,20.30
2022-10-27T13:05:19.632Z,20.20
2022-10-27T13:07:57.375Z,20.10
2022-10-27T13:10:43.833Z,19.90
2022-10-27T13:13:40.538Z,19.80
2022-10-27T13:16:13.269Z,19.80
2022-10-27T13:19:02.947Z,19.80
2022-10-27T13:21:39.896Z,19.80
2022-10-27T13:27:37.758Z,19.90
2022-10-27T13:30:07.377Z,19.90
2022-10-27T13:32:53.884Z,19.90
2022-10-27T13:35:30.809Z,19.90
2022-10-27T13:38:22.789Z,19.90
2022-10-27T13:40:51.370Z,19.90
2022-10-27T13:43:32.637Z,19.90
2022-10-27T13:46:00.342Z,20.00
2022-10-27T13:48:27.815Z,20.00
2022-10-27T13:50:57.057Z,20.10
2022-10-27T13:53:26.407Z,20.10
2022-10-27T13:55:57.939Z,20.00
2022-10-27T13:58:34.280Z,19.90
2022-10-27T14:01:07.701Z,19.80
2022-10-27T14:03:44.122Z,19.70
2022-10-27T14:06:17.352Z,19.70
2022-10-27T14:08:49.929Z,19.60
2022-10-27T14:11:29.595Z,19.60
2022-10-27T14:14:06.704Z,19.50
2022-10-27T14:16:42.156Z,19.40
2022-10-27T14:19:33.432Z,19.30
2022-10-27T14:22:07.949Z,19.40
2022-10-27T14:24:52.717Z,19.40
2022-10-27T14:27:34.508Z,19.40
2022-10-27T14:30:32.832Z,19.50
2022-10-27T14:33:30.938Z,19.50
2022-10-27T14:36:27.306Z,19.50
2022-10-27T14:39:10.818Z,19.70
2022-10-27T14:41:53.866Z,19.80
2022-10-27T14:44:29.039Z,20.00
2022-10-27T14:47:01.844Z,20.20
2022-10-27T14:49:33.798Z,20.20
2022-10-27T14:52:05.211Z,20.30
2022-10-27T14:54:36.157Z,20.20
2022-10-27T14:57:29.431Z,20.10
2022-10-27T14:59:56.990Z,20.00
2022-10-27T15:02:34.189Z,19.80
2022-10-27T15:05:26.631Z,19.60
2022-10-27T15:08:11.932Z,19.50
2022-10-27T15:13:29.943Z,19.40
2022-10-27T15:16:07.876Z,19.30
2022-10-27T15:18:42.758Z,19.30
2022-10-27T15:21:22.855Z,19.30
2022-10-27T15:24:05.932Z,19.30
2022-10-27T15:26:40.487Z,19.30
2022-10-27T15:29:18.996Z,19.30
2022-10-27T15:31:58.792Z,19.30
2022-10-27T15:34:34.925Z,19.20
2022-10-27T15:37:22.226Z,19.10
2022-10-27T15:40:04.350Z,19.00
2022-10-27T15:42:43.137Z,19.00
2022-10-27T15:45:47.129Z,18.90
2022-10-27T15:48:43.335Z,18.80
2022-10-27T15:51:40.813Z,18.80
2022-10-27T15:54:45.267Z,18.70
2022-10-27T15:57:41.356Z,18.60
2022-10-27T16:00:50.667Z,18.60
2022-10-27T16:03:42.821Z,18.50
2022-10-27T16:06:23.819Z,18.40
2022-10-27T16:08:54.673Z,18.40
2022-10-27T16:11:34.312Z,18.30
2022-10-27T16:14:13.430Z,18.20
2022-10-27T16:16:50.208Z,18.20
2022-10-27T16:19:21.752Z,18.10
2022-10-27T16:21:55.585Z,18.10
2022-10-27T16:24:43.235Z,18.10
2022-10-27T16:27:23.474Z,18.10
2022-10-27T16:30:01.125Z,18.10
2022-10-27T16:32:47.753Z,18.10
2022-10-27T16:35:23.574Z,18.00
2022-10-27T16:38:12.145Z,18.00
2022-10-27T16:41:10.132Z,18.00
2022-10-27T16:44:13.673Z,17.90
2022-10-27T16:46:42.248Z,17.90
2022-10-27T16:49:42.493Z,17.80
2022-10-27T16:52:29.204Z,17.80
2022-10-27T16:55:08.173Z,17.80
2022-10-27T16:57:48.862Z,17.70
2022-10-27T17:00:17.627Z,17.70
2022-10-27T17:02:49.323Z,17.60
2022-10-27T17:13:25.003Z,17.60
2022-10-27T17:16:52.426Z,17.60
2022-10-27T17:26:43.401Z,17.40
2022-10-27T17:29:13.803Z,17.40
2022-10-27T17:37:08.439Z,17.30
2022-10-27T17:41:12.657Z,17.20
2022-10-27T17:44:08.433Z,17.10
2022-10-27T17:46:43.625Z,17.10
2022-10-27T17:49:12.685Z,17.10
2022-10-27T17:51:40.385Z,17.10
2022-10-27T17:54:23.188Z,17.00
2022-10-27T17:56:50.649Z,17.00
2022-10-27T17:59:20.563Z,16.90
2022-10-27T18:01:50.180Z,16.90
2022-10-27T18:04:24.427Z,16.90
2022-10-27T18:06:55.275Z,16.90
2022-10-27T18:09:23.026Z,16.80
2022-10-27T18:11:50.706Z,16.80
2022-10-27T18:14:25.942Z,16.80
2022-10-27T18:16:57.537Z,16.80
2022-10-27T18:19:28.272Z,16.70
2022-10-27T18:21:59.699Z,16.60
2022-10-27T18:24:28.901Z,16.50
2022-10-27T18:27:01.442Z,16.50
2022-10-27T18:29:36.077Z,16.50
2022-10-27T18:32:04.345Z,16.40
2022-10-27T18:34:41.779Z,16.40
2022-10-27T18:37:21.939Z,16.40
2022-10-27T18:40:16.432Z,16.30
2022-10-27T18:43:05.715Z,16.30
2022-10-27T18:45:44.893Z,16.20
2022-10-27T18:48:12.809Z,16.20
2022-10-27T18:50:42.764Z,16.20
2022-10-27T18:53:20.113Z,16.10
2022-10-27T18:55:51.761Z,16.10
2022-10-27T18:58:23.106Z,16.10
2022-10-27T19:00:51.025Z,16.20
2022-10-27T19:03:18.319Z,16.20
2022-10-27T19:05:45.995Z,16.30
2022-10-27T19:08:16.989Z,16.30
2022-10-27T19:10:44.377Z,16.40
2022-10-27T19:13:12.009Z,16.40
2022-10-27T19:15:39.252Z,16.50
2022-10-27T19:18:06.597Z,16.60
2022-10-27T19:20:34.479Z,16.60
2022-10-27T19:23:05.231Z,16.70
2022-10-27T19:25:33.098Z,16.70
2022-10-27T19:28:03.799Z,16.70
2022-10-27T19:30:34.068Z,16.70
2022-10-27T19:33:04.607Z,16.70
2022-10-27T19:35:35.292Z,16.70
2022-10-27T19:38:07.472Z,16.60
2022-10-27T19:40:36.771Z,16.60
2022-10-27T19:43:09.678Z,16.70
2022-10-27T19:45:46.507Z,16.70
2022-10-27T19:48:14.091Z,16.70
2022-10-27T19:50:41.859Z,16.70
2022-10-27T19:53:12.675Z,16.70
2022-10-27T19:55:40.492Z,16.80
2022-10-27T19:58:10.600Z,16.80
2022-10-27T20:00:39.000Z,16.80
2022-10-27T20:03:10.666Z,16.80
2022-10-27T20:05:55.977Z,16.80
2022-10-27T20:08:23.392Z,16.80
2022-10-27T20:10:52.528Z,16.70
2022-10-27T20:13:20.169Z,16.80
2022-10-27T20:15:51.529Z,16.80
2022-10-27T20:18:25.739Z,16.80
2022-10-27T20:20:56.652Z,16.70
2022-10-27T20:23:24.490Z,16.70
2022-10-27T20:26:28.407Z,16.70
2022-10-27T20:28:51.817Z,16.70
2022-10-27T20:31:19.407Z,16.70
2022-10-27T20:33:47.618Z,16.70
2022-10-27T20:36:21.842Z,16.70
2022-10-27T20:38:49.168Z,16.70
2022-10-27T20:41:18.321Z,16.70
2022-10-27T20:43:45.844Z,16.60
2022-10-27T20:46:16.593Z,16.60
2022-10-27T20:48:45.120Z,16.60
2022-10-27T20:51:13.020Z,16.50
2022-10-27T20:53:40.450Z,16.50
2022-10-27T20:56:09.641Z,16.50
2022-10-27T20:58:41.316Z,16.40
2022-10-27T21:01:36.061Z,16.40
2022-10-27T21:04:29.902Z,16.30
2022-10-27T21:06:57.426Z,16.20
2022-10-27T21:09:24.707Z,16.20
2022-10-27T21:11:52.181Z,16.20
2022-10-27T21:14:22.751Z,16.10
2022-10-27T21:16:51.930Z,16.10
2022-10-27T21:19:19.873Z,16.10
2022-10-27T21:21:47.005Z,16.10
2022-10-27T21:24:17.010Z,16.10
2022-10-27T21:26:45.964Z,16.10
2022-10-27T21:29:13.939Z,16.10
2022-10-27T21:31:46.902Z,16.10
2022-10-27T21:34:16.224Z,16.10
2022-10-27T21:36:54.507Z,16.10
2022-10-27T21:39:21.980Z,16.10
2022-10-27T21:41:49.394Z,16.00
2022-10-27T21:44:17.205Z,16.00
2022-10-27T21:46:44.612Z,16.00
2022-10-27T21:49:11.974Z,16.00
2022-10-27T21:51:43.328Z,16.00
2022-10-27T21:54:10.541Z,16.00
2022-10-27T21:56:37.655Z,16.00
2022-10-27T21:59:05.925Z,16.00
2022-10-27T22:01:33.554Z,16.00
2022-10-27T22:04:03.138Z,15.90
2022-10-27T22:06:32.615Z,16.00
2022-10-27T22:09:01.013Z,15.90
2022-10-27T22:11:33.413Z,15.90
2022-10-27T22:14:01.288Z,15.90
2022-10-27T22:16:29.354Z,15.90
2022-10-27T22:18:58.312Z,15.90
2022-10-27T22:21:28.172Z,15.90
2022-10-27T22:23:59.212Z,15.90
2022-10-27T22:26:29.841Z,15.90
2022-10-27T22:28:58.431Z,15.90
2022-10-27T22:31:27.821Z,15.90
2022-10-27T22:33:55.387Z,15.90
2022-10-27T22:36:28.596Z,15.90
2022-10-27T22:38:57.511Z,16.00
2022-10-27T22:41:26.359Z,15.90
2022-10-27T22:44:00.127Z,15.90
2022-10-27T22:46:41.460Z,15.90
2022-10-27T22:49:11.699Z,15.90
2022-10-27T22:51:42.288Z,15.90
2022-10-27T22:54:14.175Z,15.90
2022-10-27T22:56:42.965Z,15.90
2022-10-27T22:59:11.419Z,15.80
2022-10-27T23:01:41.086Z,15.90
2022-10-27T23:04:13.455Z,15.90
2022-10-27T23:06:41.385Z,15.80
2022-10-27T23:09:14.251Z,15.90
2022-10-27T23:11:42.096Z,15.90
2022-10-27T23:14:11.873Z,15.90
2022-10-27T23:16:39.951Z,15.90
2022-10-27T23:19:07.832Z,15.90
2022-10-27T23:21:36.232Z,15.90
2022-10-27T23:24:08.431Z,15.90
2022-10-27T23:26:37.957Z,15.90
2022-10-27T23:29:11.162Z,15.90
2022-10-27T23:31:39.043Z,15.80
2022-10-27T23:34:07.353Z,15.80
2022-10-27T23:36:40.490Z,15.80
2022-10-27T23:39:08.359Z,15.80
2022-10-27T23:41:42.282Z,15.80
2022-10-27T23:44:12.829Z,15.70
2022-10-27T23:46:41.895Z,15.80
2022-10-27T23:49:13.205Z,15.70
2022-10-27T23:51:42.091Z,15.70
2022-10-27T23:54:09.867Z,15.70
2022-10-27T23:56:38.189Z,15.70
2022-10-27T23:59:09.632Z,15.70
